createdAt,value
2022-11-02T00:00:44.254Z,8.90
2022-11-02T00:03:52.803Z,8.80
2022-11-02T00:06:59.410Z,8.87
2022-11-02T00:10:07.712Z,7.77
2022-11-02T00:13:14.289Z,8.33
2022-11-02T00:16:21.681Z,9.20
2022-11-02T00:19:31.953Z,8.97
2022-11-02T00:22:38.073Z,7.87
2022-11-02T00:25:49.668Z,8.20
2022-11-02T00:28:55.948Z,8.30
2022-11-02T00:32:03.360Z,9.10
2022-11-02T00:35:16.635Z,9.03
2022-11-02T00:38:23.775Z,8.87
2022-11-02T00:41:31.063Z,8.67
2022-11-02T00:44:37.976Z,9.10
2022-11-02T00:47:43.681Z,8.20
2022-11-02T00:50:53.095Z,9.17
2022-11-02T00:54:03.589Z,8.63
2022-11-02T00:57:10.472Z,9.13
2022-11-02T01:00:17.762Z,9.60
2022-11-02T01:03:24.330Z,8.27
2022-11-02T01:06:32.885Z,8.97
2022-11-02T01:09:39.424Z,9.07
2022-11-02T01:12:45.337Z,9.47
2022-11-02T01:15:51.957Z,9.00
2022-11-02T01:18:59.171Z,8.50
2022-11-02T01:22:10.148Z,9.53
2022-11-02T01:25:16.087Z,9.27
2022-11-02T01:28:23.611Z,8.97
2022-11-02T01:31:30.070Z,8.70
2022-11-02T01:34:36.621Z,8.93
2022-11-02T01:37:45.576Z,9.30
2022-11-02T01:40:52.223Z,8.97
2022-11-02T01:44:01.135Z,9.33
2022-11-02T01:47:15.453Z,9.30
2022-11-02T01:50:24.854Z,9.73
2022-11-02T01:53:36.999Z,10.03
2022-11-02T01:56:44.088Z,9.23
2022-11-02T01:59:58.733Z,9.37
2022-11-02T02:03:10.223Z,9.07
2022-11-02T02:06:18.529Z,9.53
2022-11-02T02:09:28.626Z,9.83
2022-11-02T02:12:37.597Z,10.13
2022-11-02T02:15:51.683Z,8.87
2022-11-02T02:19:03.269Z,9.33
2022-11-02T02:22:51.962Z,9.50
2022-11-02T02:26:34.338Z,10.10
2022-11-02T02:29:54.680Z,8.67
2022-11-02T02:33:07.972Z,9.17
2022-11-02T02:36:24.560Z,9.20
2022-11-02T02:39:40.440Z,10.43
2022-11-02T02:42:55.186Z,9.70
2022-11-02T02:46:10.139Z,10.60
2022-11-02T02:49:22.865Z,9.60
2022-11-02T02:52:31.975Z,10.07
2022-11-02T02:55:44.673Z,9.80
2022-11-02T02:58:55.813Z,9.87
2022-11-02T03:02:08.886Z,9.73
2022-11-02T03:05:28.224Z,9.90
2022-11-02T03:08:35.994Z,10.17
2022-11-02T03:11:52.149Z,10.87
2022-11-02T03:15:11.248Z,11.00
2022-11-02T03:18:30.837Z,9.97
2022-11-02T03:21:44.006Z,10.47
2022-11-02T03:24:56.667Z,10.93
2022-11-02T03:28:14.172Z,10.10
2022-11-02T03:31:24.802Z,10.97
2022-11-02T03:34:40.822Z,11.37
2022-11-02T03:37:52.448Z,10.30
2022-11-02T03:41:03.603Z,10.10
2022-11-02T03:44:12.275Z,10.67
2022-11-02T03:47:20.953Z,9.97
2022-11-02T03:50:30.567Z,9.77
2022-11-02T03:53:45.162Z,10.20
2022-11-02T03:56:54.933Z,10.27
2022-11-02T04:00:10.352Z,9.87
2022-11-02T04:03:21.385Z,9.00
2022-11-02T04:06:31.247Z,10.30
2022-11-02T04:09:37.570Z,10.07
2022-11-02T04:12:59.983Z,9.50
2022-11-02T04:16:08.001Z,10.60
2022-11-02T04:19:30.118Z,10.27
2022-11-02T04:23:03.551Z,10.47
2022-11-02T04:26:10.422Z,8.97
2022-11-02T04:29:22.709Z,10.07
2022-11-02T04:32:45.483Z,9.97
2022-11-02T04:35:54.629Z,8.90
2022-11-02T04:39:06.638Z,9.40
2022-11-02T04:42:12.776Z,10.17
2022-11-02T04:45:22.849Z,9.63
2022-11-02T04:48:28.727Z,10.17
2022-11-02T04:51:36.779Z,9.50
2022-11-02T04:54:45.674Z,9.83
2022-11-02T04:57:52.347Z,10.70
2022-11-02T05:00:59.948Z,10.73
2022-11-02T05:04:08.568Z,10.27
2022-11-02T05:07:16.373Z,9.83
2022-11-02T05:10:27.068Z,9.77
2022-11-02T05:13:35.267Z,10.20
2022-11-02T05:16:42.344Z,10.77
2022-11-02T05:19:49.768Z,10.30
2022-11-02T05:22:57.890Z,9.70
2022-11-02T05:26:08.622Z,10.73
2022-11-02T05:29:15.580Z,9.90
2022-11-02T05:32:21.517Z,10.77
2022-11-02T05:35:28.133Z,10.40
2022-11-02T05:38:34.266Z,10.47
2022-11-02T05:41:45.349Z,10.37
2022-11-02T05:44:52.610Z,10.00
2022-11-02T05:47:59.636Z,10.20
2022-11-02T05:51:08.254Z,9.40
2022-11-02T05:54:14.977Z,10.30
2022-11-02T05:57:24.152Z,9.23
2022-11-02T06:00:30.762Z,9.93
2022-11-02T06:03:36.969Z,8.23
2022-11-02T06:06:43.858Z,10.37
2022-11-02T06:09:49.886Z,9.07
2022-11-02T06:13:06.544Z,8.17
2022-11-02T06:16:31.267Z,8.87
2022-11-02T06:19:56.023Z,8.97
2022-11-02T06:23:04.055Z,9.83
2022-11-02T06:26:29.125Z,9.27
2022-11-02T06:29:56.465Z,9.30
2022-11-02T06:33:21.822Z,10.80
2022-11-02T06:36:27.641Z,8.80
2022-11-02T06:39:34.437Z,8.47
2022-11-02T06:43:16.979Z,8.80
2022-11-02T06:46:45.395Z,9.13
2022-11-02T06:50:10.552Z,9.37
2022-11-02T06:53:17.455Z,9.83
2022-11-02T06:56:23.504Z,8.60
2022-11-02T06:59:52.855Z,9.43
2022-11-02T07:03:21.327Z,9.27
2022-11-02T07:06:27.984Z,8.90
2022-11-02T07:09:52.716Z,10.07
2022-11-02T07:13:17.500Z,8.10
2022-11-02T07:16:25.411Z,8.93
2022-11-02T07:19:34.056Z,9.20
2022-11-02T07:22:41.020Z,8.67
2022-11-02T07:25:47.159Z,9.00
2022-11-02T07:28:58.272Z,9.47
2022-11-02T07:32:07.903Z,10.73
2022-11-02T07:35:19.386Z,10.40
2022-11-02T07:38:25.190Z,9.80
2022-11-02T07:41:31.818Z,10.97
2022-11-02T07:44:37.652Z,10.10
2022-11-02T07:47:47.784Z,9.93
2022-11-02T07:50:56.330Z,11.13
2022-11-02T07:54:03.807Z,10.47
2022-11-02T07:57:09.814Z,10.87
2022-11-02T08:00:16.998Z,9.67
2022-11-02T08:03:22.917Z,10.40
2022-11-02T08:06:32.399Z,11.43
2022-11-02T08:09:38.899Z,11.50
2022-11-02T08:12:45.428Z,10.43
2022-11-02T08:15:53.784Z,10.97
2022-11-02T08:19:00.967Z,10.80
2022-11-02T08:22:10.714Z,10.87
2022-11-02T08:25:17.271Z,10.57
2022-11-02T08:28:25.663Z,10.97
2022-11-02T08:31:32.716Z,9.80
2022-11-02T08:34:38.465Z,10.30
2022-11-02T08:37:47.849Z,10.10
2022-11-02T08:40:53.802Z,10.13
2022-11-02T08:44:00.545Z,9.90
2022-11-02T08:47:09.547Z,10.10
2022-11-02T08:50:16.367Z,10.13
2022-11-02T08:53:25.003Z,9.23
2022-11-02T08:56:31.605Z,9.50
2022-11-02T08:59:37.331Z,10.27
2022-11-02T09:02:46.175Z,10.57
2022-11-02T09:05:52.031Z,8.47
2022-11-02T09:09:03.405Z,9.17
2022-11-02T09:12:10.339Z,9.57
2022-11-02T09:15:17.227Z,9.43
2022-11-02T09:18:23.325Z,8.80
2022-11-02T09:21:29.907Z,8.27
2022-11-02T09:24:38.622Z,10.07
2022-11-02T09:27:47.811Z,8.43
2022-11-02T09:30:56.150Z,8.63
2022-11-02T09:34:04.493Z,8.40
2022-11-02T09:37:10.359Z,7.87
2022-11-02T09:40:23.942Z,8.73
2022-11-02T09:43:40.274Z,9.30
2022-11-02T09:47:17.686Z,7.97
2022-11-02T09:50:21.286Z,9.43
2022-11-02T09:53:39.990Z,8.87
2022-11-02T09:56:50.120Z,7.53
2022-11-02T09:59:56.692Z,7.90
2022-11-02T10:03:11.270Z,8.13
2022-11-02T10:06:22.476Z,7.87
2022-11-02T10:09:36.481Z,7.10
2022-11-02T10:12:53.801Z,7.33
2022-11-02T10:16:03.742Z,6.47
2022-11-02T10:19:18.751Z,6.30
2022-11-02T10:22:29.270Z,6.03
2022-11-02T10:25:37.785Z,5.50
2022-11-02T10:28:51.199Z,6.27
2022-11-02T10:31:57.721Z,5.83
2022-11-02T10:35:29.985Z,4.67
2022-11-02T10:38:50.444Z,6.20
2022-11-02T10:42:11.894Z,5.30
2022-11-02T10:45:50.652Z,5.37
2022-11-02T10:49:06.520Z,5.50
2022-11-02T10:52:17.026Z,6.27
2022-11-02T10:55:29.005Z,5.33
2022-11-02T10:58:37.538Z,5.00
2022-11-02T11:01:50.121Z,4.03
2022-11-02T11:05:15.634Z,4.10
2022-11-02T11:08:34.855Z,4.60
2022-11-02T11:11:42.145Z,3.17
2022-11-02T11:21:50.031Z,3.30
2022-11-02T11:24:56.741Z,3.20
2022-11-02T11:28:03.764Z,3.20
2022-11-02T11:31:17.840Z,3.37
2022-11-02T11:34:30.494Z,3.07
2022-11-02T11:37:38.188Z,3.67
2022-11-02T11:40:54.024Z,2.70
2022-11-02T11:44:03.807Z,3.60
2022-11-02T11:47:09.667Z,3.27
2022-11-02T11:50:22.203Z,3.50
2022-11-02T11:53:35.739Z,3.10
2022-11-02T11:56:42.367Z,3.30
2022-11-02T11:59:52.235Z,3.90
2022-11-02T12:03:08.252Z,3.13
2022-11-02T12:06:28.512Z,3.43
2022-11-02T12:09:43.283Z,3.10
2022-11-02T12:13:04.674Z,2.80
2022-11-02T12:16:22.441Z,3.27
2022-11-02T12:19:38.066Z,3.30
2022-11-02T12:22:57.544Z,3.30
2022-11-02T12:26:16.023Z,3.00
2022-11-02T12:29:59.664Z,2.50
2022-11-02T12:33:17.072Z,2.83
2022-11-02T12:36:50.818Z,2.67
2022-11-02T12:43:43.377Z,2.47
2022-11-02T12:46:58.233Z,2.30
2022-11-02T12:50:21.228Z,2.30
2022-11-02T12:53:43.619Z,2.73
2022-11-02T12:56:55.233Z,2.40
2022-11-02T13:00:04.609Z,2.77
2022-11-02T13:03:33.429Z,2.37
2022-11-02T13:06:44.445Z,2.60
2022-11-02T13:09:56.820Z,2.93
2022-11-02T13:13:07.761Z,2.77
2022-11-02T13:16:17.130Z,2.70
2022-11-02T13:19:25.886Z,2.93
2022-11-02T13:22:38.438Z,2.70
2022-11-02T13:25:47.336Z,2.90
2022-11-02T13:28:59.937Z,2.93
2022-11-02T13:32:13.685Z,2.93
2022-11-02T13:35:23.369Z,2.87
2022-11-02T13:38:35.327Z,2.80
2022-11-02T13:42:08.648Z,2.90
2022-11-02T13:45:43.156Z,3.53
2022-11-02T13:49:03.564Z,2.93
2022-11-02T13:52:15.547Z,3.90
2022-11-02T13:55:25.690Z,3.03
2022-11-02T13:58:36.487Z,3.63
2022-11-02T14:01:47.991Z,3.07
2022-11-02T14:04:54.588Z,3.60
2022-11-02T14:08:07.111Z,4.20
2022-11-02T14:11:35.847Z,3.57
2022-11-02T14:14:42.394Z,3.40
2022-11-02T14:18:11.623Z,3.43
2022-11-02T14:21:43.503Z,4.07
2022-11-02T14:25:16.726Z,3.80
2022-11-02T14:28:46.949Z,2.80
2022-11-02T14:32:01.285Z,3.80
2022-11-02T14:35:25.409Z,3.90
2022-11-02T14:39:00.535Z,3.40
2022-11-02T14:42:23.759Z,3.63
2022-11-02T14:45:46.332Z,3.27
2022-11-02T14:48:56.345Z,3.63
2022-11-02T14:52:11.258Z,3.80
2022-11-02T14:55:27.169Z,3.80
2022-11-02T14:58:36.933Z,3.87
2022-11-02T15:01:53.214Z,3.93
2022-11-02T15:05:04.794Z,4.37
2022-11-02T15:08:28.505Z,5.07
2022-11-02T15:11:48.750Z,4.67
2022-11-02T15:14:59.275Z,4.70
2022-11-02T15:18:35.092Z,5.40
2022-11-02T15:21:41.572Z,4.57
2022-11-02T15:24:52.323Z,4.70
2022-11-02T15:28:08.393Z,4.73
2022-11-02T15:31:25.655Z,4.37
2022-11-02T15:34:38.825Z,3.90
2022-11-02T15:38:03.347Z,3.93
2022-11-02T15:41:23.747Z,4.30
2022-11-02T15:45:19.972Z,4.30
2022-11-02T15:48:49.717Z,4.33
2022-11-02T15:52:03.605Z,5.27
2022-11-02T15:55:21.080Z,4.47
2022-11-02T15:58:43.780Z,5.40
2022-11-02T16:02:07.473Z,5.80
2022-11-02T16:05:21.065Z,5.97
2022-11-02T16:08:33.670Z,6.40
2022-11-02T16:11:39.426Z,6.47
2022-11-02T16:14:57.800Z,6.23
2022-11-02T16:18:03.866Z,5.90
2022-11-02T16:21:16.074Z,6.20
2022-11-02T16:24:22.676Z,5.87
2022-11-02T16:27:29.529Z,6.23
2022-11-02T16:30:37.934Z,6.33
2022-11-02T16:33:46.178Z,6.47
2022-11-02T16:36:51.851Z,7.00
2022-11-02T16:39:58.507Z,5.90
2022-11-02T16:43:04.197Z,5.37
2022-11-02T16:46:18.038Z,4.90
2022-11-02T16:49:25.687Z,4.77
2022-11-02T16:52:35.120Z,4.40
2022-11-02T16:55:43.316Z,4.57
2022-11-02T16:58:51.738Z,3.57
2022-11-02T17:02:06.309Z,3.60
2022-11-02T17:05:20.428Z,4.27
2022-11-02T17:08:32.374Z,3.73
2022-11-02T17:11:44.697Z,3.93
2022-11-02T17:14:52.422Z,3.80
2022-11-02T17:18:28.006Z,4.40
2022-11-02T17:21:37.988Z,4.70
2022-11-02T17:24:44.736Z,4.30
2022-11-02T17:27:50.884Z,5.23
2022-11-02T17:30:57.346Z,4.77
2022-11-02T17:34:18.523Z,5.10
2022-11-02T17:37:29.713Z,4.13
2022-11-02T17:40:38.142Z,5.23
2022-11-02T17:43:47.377Z,5.07
2022-11-02T17:46:52.965Z,4.47
2022-11-02T17:50:03.332Z,4.33
2022-11-02T17:53:09.669Z,4.60
2022-11-02T17:56:16.409Z,4.40
2022-11-02T17:59:21.988Z,4.33
2022-11-02T18:02:28.580Z,4.10
2022-11-02T18:05:39.460Z,4.53
2022-11-02T18:09:03.366Z,4.30
2022-11-02T18:12:09.284Z,5.80
2022-11-02T18:15:19.511Z,5.37
2022-11-02T18:18:25.065Z,4.77
2022-11-02T18:21:34.236Z,5.10
2022-11-02T18:24:39.811Z,5.00
2022-11-02T18:27:46.906Z,4.53
2022-11-02T18:30:52.721Z,4.67
2022-11-02T18:33:59.423Z,4.73
2022-11-02T18:37:10.102Z,5.13
2022-11-02T18:40:18.049Z,4.70
2022-11-02T18:43:23.596Z,5.13
2022-11-02T18:46:31.227Z,5.70
2022-11-02T18:49:36.784Z,5.40
2022-11-02T18:52:49.272Z,5.30
2022-11-02T18:55:54.942Z,6.07
2022-11-02T18:59:03.564Z,7.17
2022-11-02T19:02:09.653Z,6.97
2022-11-02T19:05:28.274Z,6.80
2022-11-02T19:08:52.579Z,7.47
2022-11-02T19:12:06.893Z,6.50
2022-11-02T19:15:13.098Z,7.03
2022-11-02T19:18:19.513Z,7.73
2022-11-02T19:21:25.593Z,6.67
2022-11-02T19:24:34.768Z,6.17
2022-11-02T19:27:40.309Z,6.20
2022-11-02T19:30:46.701Z,6.70
2022-11-02T19:33:52.354Z,6.23
2022-11-02T19:36:58.948Z,7.20
2022-11-02T19:40:08.043Z,6.73
2022-11-02T19:43:14.693Z,6.50
2022-11-02T19:46:22.347Z,6.17
2022-11-02T19:49:29.052Z,7.57
2022-11-02T19:52:34.606Z,7.40
2022-11-02T19:55:43.843Z,7.30
2022-11-02T19:58:51.082Z,6.63
2022-11-02T20:01:57.841Z,6.80
2022-11-02T20:05:03.511Z,6.70
2022-11-02T20:08:10.440Z,7.23
2022-11-02T20:11:19.084Z,6.93
2022-11-02T20:14:25.559Z,7.57
2022-11-02T20:17:38.092Z,7.00
2022-11-02T20:20:53.359Z,6.33
2022-11-02T20:23:59.691Z,6.60
2022-11-02T20:27:10.240Z,7.00
2022-11-02T20:30:16.040Z,7.77
2022-11-02T20:33:22.461Z,6.93
2022-11-02T20:36:27.998Z,7.53
2022-11-02T20:39:34.682Z,6.67
2022-11-02T20:42:44.133Z,6.97
2022-11-02T20:45:53.682Z,7.13
2022-11-02T20:49:08.840Z,7.17
2022-11-02T20:52:27.798Z,7.37
2022-11-02T20:55:33.521Z,6.57
2022-11-02T20:58:42.766Z,7.43
2022-11-02T21:01:48.849Z,8.03
2022-11-02T21:04:55.341Z,8.30
2022-11-02T21:08:01.246Z,7.73
2022-11-02T21:11:29.701Z,7.90
2022-11-02T21:14:35.813Z,6.90
2022-11-02T21:17:42.200Z,7.23
2022-11-02T21:20:47.990Z,7.03
2022-11-02T21:23:54.996Z,6.80
2022-11-02T21:27:00.761Z,6.63
2022-11-02T21:30:12.859Z,7.10
2022-11-02T21:33:18.415Z,7.30
2022-11-02T21:36:24.855Z,6.80
2022-11-02T21:39:30.710Z,7.47
2022-11-02T21:42:37.196Z,6.87
2022-11-02T21:45:53.383Z,7.70
2022-11-02T21:49:00.178Z,7.40
2022-11-02T21:52:08.093Z,7.70
2022-11-02T21:55:14.795Z,7.80
2022-11-02T21:58:20.377Z,7.47
2022-11-02T22:01:50.454Z,7.83
2022-11-02T22:04:57.380Z,8.10
2022-11-02T22:08:19.722Z,7.13
2022-11-02T22:11:30.110Z,7.57
2022-11-02T22:14:36.531Z,7.90
2022-11-02T22:17:49.556Z,8.37
2022-11-02T22:20:58.589Z,7.97
2022-11-02T22:24:06.863Z,8.70
2022-11-02T22:27:13.348Z,7.43
2022-11-02T22:30:19.004Z,8.40
2022-11-02T22:33:28.877Z,8.30
2022-11-02T22:36:36.607Z,7.93
2022-11-02T22:39:40.283Z,7.10
2022-11-02T22:42:45.821Z,7.73
2022-11-02T22:45:52.282Z,7.67
2022-11-02T22:49:03.337Z,7.90
2022-11-02T22:52:09.795Z,7.70
2022-11-02T22:55:15.304Z,7.70
2022-11-02T22:58:21.740Z,7.87
2022-11-02T23:01:28.958Z,8.50
2022-11-02T23:04:38.455Z,9.00
2022-11-02T23:07:44.003Z,8.60
2022-11-02T23:11:06.267Z,9.43
2022-11-02T23:14:13.664Z,9.10
2022-11-02T23:17:20.268Z,8.30
2022-11-02T23:20:28.805Z,8.87
2022-11-02T23:23:51.010Z,8.37
2022-11-02T23:26:56.684Z,8.80
2022-11-02T23:30:18.957Z,8.43
2022-11-02T23:33:26.494Z,9.50
2022-11-02T23:36:33.434Z,8.33
2022-11-02T23:39:51.148Z,8.60
2022-11-02T23:42:58.095Z,9.00
2022-11-02T23:46:03.622Z,8.23
2022-11-02T23:49:10.477Z,8.27
2022-11-02T23:52:34.431Z,9.10
2022-11-02T23:55:56.498Z,8.70
2022-11-02T23:59:09.210Z,8.67
